sensor_id;sensor_type;location;lat;lon;timestamp;pressure;altitude;pressure_sealevel;temperature;humidity
43281;BME280;62175;49.416;8.690;2023-12-20T00:01:54;100644.29;;;9.26;60.53
43281;BME280;62175;49.416;8.690;2023-12-20T00:04:21;100646.76;;;8.95;61.67
43281;BME280;62175;49.416;8.690;2023-12-20T00:06:48;100637.59;;;9.31;60.44
43281;BME280;62175;49.416;8.690;2023-12-20T00:09:16;100634.83;;;9.27;60.98
43281;BME280;62175;49.416;8.690;2023-12-20T00:11:43;100636.58;;;9.05;61.36
43281;BME280;62175;49.416;8.690;2023-12-20T00:14:10;100633.26;;;8.68;61.59
43281;BME280;62175;49.416;8.690;2023-12-20T00:16:37;100633.25;;;9.05;60.70
43281;BME280;62175;49.416;8.690;2023-12-20T00:19:04;100636.10;;;9.07;61.54
43281;BME280;62175;49.416;8.690;2023-12-20T00:21:32;100626.14;;;9.11;61.95
43281;BME280;62175;49.416;8.690;2023-12-20T00:23:58;100626.72;;;9.09;61.00
43281;BME280;62175;49.416;8.690;2023-12-20T00:26:26;100630.37;;;9.01;61.29
43281;BME280;62175;49.416;8.690;2023-12-20T00:28:53;100627.61;;;9.39;60.84
43281;BME280;62175;49.416;8.690;2023-12-20T00:31:20;100627.38;;;9.30;60.99
43281;BME280;62175;49.416;8.690;2023-12-20T00:33:47;100625.33;;;9.12;61.19
43281;BME280;62175;49.416;8.690;2023-12-20T00:36:15;100627.97;;;9.48;61.31
43281;BME280;62175;49.416;8.690;2023-12-20T00:38:41;100626.21;;;9.37;61.18
43281;BME280;62175;49.416;8.690;2023-12-20T00:41:09;100617.86;;;8.78;60.81
43281;BME280;62175;49.416;8.690;2023-12-20T00:43:36;100619.75;;;9.04;61.50
43281;BME280;62175;49.416;8.690;2023-12-20T00:46:03;100616.38;;;9.05;61.33
43281;BME280;62175;49.416;8.690;2023-12-20T00:48:30;100614.38;;;8.99;61.47
43281;BME280;62175;49.416;8.690;2023-12-20T00:50:57;100612.25;;;9.20;61.78
43281;BME280;62175;49.416;8.690;2023-12-20T00:53:24;100609.41;;;9.33;61.32
43281;BME280;62175;49.416;8.690;2023-12-20T00:55:52;100607.22;;;9.41;61.03
43281;BME280;62175;49.416;8.690;2023-12-20T00:58:18;100607.58;;;9.02;61.33
43281;BME280;62175;49.416;8.690;2023-12-20T01:00:46;100608.06;;;8.97;61.21
43281;BME280;62175;49.416;8.690;2023-12-20T01:03:13;100607.45;;;9.20;62.19
43281;BME280;62175;49.416;8.690;2023-12-20T01:05:40;100605.62;;;8.93;61.87
43281;BME280;62175;49.416;8.690;2023-12-20T01:08:07;100605.70;;;9.32;61.93
43281;BME280;62175;49.416;8.690;2023-12-20T01:10:34;100606.00;;;9.04;61.81
43281;BME280;62175;49.416;8.690;2023-12-20T01:13:02;100606.97;;;9.29;62.24
43281;BME280;62175;49.416;8.690;2023-12-20T01:15:29;100608.69;;;9.26;63.06
43281;BME280;62175;49.416;8.690;2023-12-20T01:17:56;100607.75;;;8.99;63.07
43281;BME280;62175;49.416;8.690;2023-12-20T01:20:23;100604.77;;;9.24;62.44
43281;BME280;62175;49.416;8.690;2023-12-20T01:22:51;100604.72;;;9.07;61.92
43281;BME280;62175;49.416;8.690;2023-12-20T01:25:17;100604.58;;;9.36;62.68
43281;BME280;62175;49.416;8.690;2023-12-20T01:27:45;100604.94;;;9.01;62.34
43281;BME280;62175;49.416;8.690;2023-12-20T01:30:13;100602.18;;;9.33;62.26
43281;BME280;62175;49.416;8.690;2023-12-20T01:32:40;100603.16;;;9.21;61.90
43281;BME280;62175;49.416;8.690;2023-12-20T01:35:07;100605.33;;;9.01;61.59
43281;BME280;62175;49.416;8.690;2023-12-20T01:37:34;100599.59;;;9.22;62.36
43281;BME280;62175;49.416;8.690;2023-12-20T01:40:02;100597.27;;;9.03;62.11
43281;BME280;62175;49.416;8.690;2023-12-20T01:42:29;100597.04;;;8.79;62.26
43281;BME280;62175;49.416;8.690;2023-12-20T01:44:56;100599.54;;;9.14;61.83
43281;BME280;62175;49.416;8.690;2023-12-20T01:47:24;100602.39;;;9.20;61.50
43281;BME280;62175;49.416;8.690;2023-12-20T01:49:50;100604.33;;;9.44;61.88
43281;BME280;62175;49.416;8.690;2023-12-20T01:52:18;100603.15;;;9.28;62.40
43281;BME280;62175;49.416;8.690;2023-12-20T01:54:47;100605.93;;;9.31;61.48
43281;BME280;62175;49.416;8.690;2023-12-20T01:57:14;100603.50;;;8.73;62.48
43281;BME280;62175;49.416;8.690;2023-12-20T01:59:41;100603.70;;;9.38;62.16
43281;BME280;62175;49.416;8.690;2023-12-20T02:02:08;100605.19;;;8.99;62.31
43281;BME280;62175;49.416;8.690;2023-12-20T02:04:36;100605.49;;;8.85;61.49
43281;BME280;62175;49.416;8.690;2023-12-20T02:07:03;100600.69;;;8.86;61.76
43281;BME280;62175;49.416;8.690;2023-12-20T02:09:32;100600.45;;;9.40;61.65
43281;BME280;62175;49.416;8.690;2023-12-20T02:11:59;100600.40;;;9.23;62.26
43281;BME280;62175;49.416;8.690;2023-12-20T02:14:26;100603.37;;;9.02;62.21
43281;BME280;62175;49.416;8.690;2023-12-20T02:16:53;100599.17;;;9.20;61.81
43281;BME280;62175;49.416;8.690;2023-12-20T02:19:20;100599.26;;;9.08;62.23
43281;BME280;62175;49.416;8.690;2023-12-20T02:21:47;100603.36;;;8.96;61.87
43281;BME280;62175;49.416;8.690;2023-12-20T02:24:14;100606.81;;;9.19;62.30
43281;BME280;62175;49.416;8.690;2023-12-20T02:26:41;100600.94;;;9.14;61.47
43281;BME280;62175;49.416;8.690;2023-12-20T02:29:08;100598.63;;;8.96;61.73
43281;BME280;62175;49.416;8.690;2023-12-20T02:31:35;100596.88;;;9.03;62.24
43281;BME280;62175;49.416;8.690;2023-12-20T02:34:03;100597.39;;;9.13;61.58
43281;BME280;62175;49.416;8.690;2023-12-20T02:36:30;100594.89;;;9.29;62.68
43281;BME280;62175;49.416;8.690;2023-12-20T02:38:57;100594.53;;;9.34;61.81
43281;BME280;62175;49.416;8.690;2023-12-20T02:41:25;100597.90;;;9.29;62.52
43281;BME280;62175;49.416;8.690;2023-12-20T02:43:52;100608.16;;;9.31;62.11
43281;BME280;62175;49.416;8.690;2023-12-20T02:46:18;100611.81;;;9.22;62.12
43281;BME280;62175;49.416;8.690;2023-12-20T02:48:46;100611.61;;;9.08;62.43
43281;BME280;62175;49.416;8.690;2023-12-20T02:51:13;100608.06;;;8.94;62.38
43281;BME280;62175;49.416;8.690;2023-12-20T02:53:41;100605.54;;;9.35;61.27
43281;BME280;62175;49.416;8.690;2023-12-20T02:56:07;100604.04;;;8.76;62.61
43281;BME280;62175;49.416;8.690;2023-12-20T02:58:35;100600.91;;;9.09;62.60
43281;BME280;62175;49.416;8.690;2023-12-20T03:01:02;100592.72;;;9.06;62.42
43281;BME280;62175;49.416;8.690;2023-12-20T03:03:29;100588.60;;;9.17;62.38
43281;BME280;62175;49.416;8.690;2023-12-20T03:05:56;100584.49;;;9.23;61.82
43281;BME280;62175;49.416;8.690;2023-12-20T03:08:23;100593.20;;;8.67;62.70
43281;BME280;62175;49.416;8.690;2023-12-20T03:10:50;100600.56;;;9.13;62.84
43281;BME280;62175;49.416;8.690;2023-12-20T03:13:18;100598.32;;;8.77;62.17
43281;BME280;62175;49.416;8.690;2023-12-20T03:15:45;100603.04;;;9.05;62.49
43281;BME280;62175;49.416;8.690;2023-12-20T03:18:12;100597.06;;;8.96;61.73
43281;BME280;62175;49.416;8.690;2023-12-20T03:20:40;100599.57;;;9.29;63.13
43281;BME280;62175;49.416;8.690;2023-12-20T03:23:07;100601.85;;;8.92;62.19
43281;BME280;62175;49.416;8.690;2023-12-20T03:25:35;100601.76;;;9.21;62.82
43281;BME280;62175;49.416;8.690;2023-12-20T03:28:02;100599.80;;;9.19;62.11
43281;BME280;62175;49.416;8.690;2023-12-20T03:30:29;100609.35;;;9.00;62.88
43281;BME280;62175;49.416;8.690;2023-12-20T03:32:59;100612.57;;;9.20;62.67
43281;BME280;62175;49.416;8.690;2023-12-20T03:35:26;100610.09;;;9.42;61.80
43281;BME280;62175;49.416;8.690;2023-12-20T03:37:54;100604.04;;;8.98;62.27
43281;BME280;62175;49.416;8.690;2023-12-20T03:40:21;100600.17;;;9.33;61.88
43281;BME280;62175;49.416;8.690;2023-12-20T03:42:49;100596.34;;;9.33;62.35
43281;BME280;62175;49.416;8.690;2023-12-20T03:45:15;100596.80;;;9.02;61.52
43281;BME280;62175;49.416;8.690;2023-12-20T03:47:43;100602.05;;;9.27;62.24
43281;BME280;62175;49.416;8.690;2023-12-20T03:50:10;100609.35;;;9.10;62.74
43281;BME280;62175;49.416;8.690;2023-12-20T03:52:38;100604.62;;;9.23;61.32
43281;BME280;62175;49.416;8.690;2023-12-20T03:55:05;100602.28;;;9.17;62.02
43281;BME280;62175;49.416;8.690;2023-12-20T03:57:32;100605.88;;;9.21;62.08
43281;BME280;62175;49.416;8.690;2023-12-20T04:00:00;100603.47;;;9.02;61.83
43281;BME280;62175;49.416;8.690;2023-12-20T04:02:27;100595.53;;;9.04;62.41
43281;BME280;62175;49.416;8.690;2023-12-20T04:04:54;100592.19;;;9.38;61.51
43281;BME280;62175;49.416;8.690;2023-12-20T04:07:21;100594.51;;;9.36;61.48
43281;BME280;62175;49.416;8.690;2023-12-20T04:09:48;100600.68;;;9.19;61.98
43281;BME280;62175;49.416;8.690;2023-12-20T04:12:16;100602.26;;;9.34;61.20
43281;BME280;62175;49.416;8.690;2023-12-20T04:14:43;100600.47;;;9.22;62.61
43281;BME280;62175;49.416;8.690;2023-12-20T04:17:10;100600.07;;;9.06;61.71
43281;BME280;62175;49.416;8.690;2023-12-20T04:19:37;100606.84;;;9.37;63.23
43281;BME280;62175;49.416;8.690;2023-12-20T04:22:05;100607.19;;;9.19;62.79
43281;BME280;62175;49.416;8.690;2023-12-20T04:24:32;100605.40;;;9.29;61.32
43281;BME280;62175;49.416;8.690;2023-12-20T04:27:00;100611.26;;;8.96;62.10
43281;BME280;62175;49.416;8.690;2023-12-20T04:29:27;100611.70;;;9.25;61.79
43281;BME280;62175;49.416;8.690;2023-12-20T04:31:54;100619.01;;;9.17;62.05
43281;BME280;62175;49.416;8.690;2023-12-20T04:34:22;100625.40;;;9.51;62.81
43281;BME280;62175;49.416;8.690;2023-12-20T04:36:49;100620.82;;;8.89;61.88
43281;BME280;62175;49.416;8.690;2023-12-20T04:39:16;100621.41;;;9.21;61.97
43281;BME280;62175;49.416;8.690;2023-12-20T04:41:44;100623.07;;;9.21;63.00
43281;BME280;62175;49.416;8.690;2023-12-20T04:44:11;100630.13;;;9.38;61.54
43281;BME280;62175;49.416;8.690;2023-12-20T04:46:39;100638.13;;;9.10;61.98
43281;BME280;62175;49.416;8.690;2023-12-20T04:49:06;100642.59;;;9.00;61.92
43281;BME280;62175;49.416;8.690;2023-12-20T04:51:33;100633.77;;;9.10;61.85
43281;BME280;62175;49.416;8.690;2023-12-20T04:54:01;100640.62;;;9.23;61.92
43281;BME280;62175;49.416;8.690;2023-12-20T04:56:28;100642.29;;;9.23;61.55
43281;BME280;62175;49.416;8.690;2023-12-20T04:58:55;100645.50;;;9.07;62.53
43281;BME280;62175;49.416;8.690;2023-12-20T05:01:23;100643.74;;;9.50;62.30
43281;BME280;62175;49.416;8.690;2023-12-20T05:03:50;100645.87;;;9.22;61.91
43281;BME280;62175;49.416;8.690;2023-12-20T05:06:17;100649.09;;;9.16;62.57
43281;BME280;62175;49.416;8.690;2023-12-20T05:08:44;100649.00;;;9.28;62.49
43281;BME280;62175;49.416;8.690;2023-12-20T05:11:12;100650.91;;;9.24;61.69
43281;BME280;62175;49.416;8.690;2023-12-20T05:13:39;100653.32;;;9.22;63.26
43281;BME280;62175;49.416;8.690;2023-12-20T05:16:07;100657.99;;;9.07;62.57
43281;BME280;62175;49.416;8.690;2023-12-20T05:18:34;100665.28;;;9.63;62.29
43281;BME280;62175;49.416;8.690;2023-12-20T05:21:01;100669.58;;;9.62;62.56
43281;BME280;62175;49.416;8.690;2023-12-20T05:23:29;100672.07;;;9.04;62.24
43281;BME280;62175;49.416;8.690;2023-12-20T05:25:56;100673.96;;;9.19;62.05
43281;BME280;62175;49.416;8.690;2023-12-20T05:28:23;100668.05;;;9.24;62.76
43281;BME280;62175;49.416;8.690;2023-12-20T05:30:51;100671.46;;;9.53;62.17
43281;BME280;62175;49.416;8.690;2023-12-20T05:33:18;100674.84;;;9.57;62.05
43281;BME280;62175;49.416;8.690;2023-12-20T05:35:45;100678.97;;;9.09;62.33
43281;BME280;62175;49.416;8.690;2023-12-20T05:38:12;100675.00;;;9.47;62.02
43281;BME280;62175;49.416;8.690;2023-12-20T05:40:40;100669.69;;;9.22;62.76
43281;BME280;62175;49.416;8.690;2023-12-20T05:43:07;100672.58;;;9.42;62.14
43281;BME280;62175;49.416;8.690;2023-12-20T05:45:34;100672.79;;;9.23;62.49
43281;BME280;62175;49.416;8.690;2023-12-20T05:48:02;100678.82;;;9.18;62.71
43281;BME280;62175;49.416;8.690;2023-12-20T05:50:29;100686.36;;;9.27;62.82
43281;BME280;62175;49.416;8.690;2023-12-20T05:52:56;100691.08;;;9.05;63.59
43281;BME280;62175;49.416;8.690;2023-12-20T05:55:24;100703.38;;;9.41;62.18
43281;BME280;62175;49.416;8.690;2023-12-20T05:57:51;100706.16;;;9.38;62.08
43281;BME280;62175;49.416;8.690;2023-12-20T06:00:18;100710.54;;;9.28;62.45
43281;BME280;62175;49.416;8.690;2023-12-20T06:02:45;100706.86;;;9.25;62.81
43281;BME280;62175;49.416;8.690;2023-12-20T06:05:13;100713.71;;;9.55;62.33
43281;BME280;62175;49.416;8.690;2023-12-20T06:07:40;100723.11;;;9.40;62.37
43281;BME280;62175;49.416;8.690;2023-12-20T06:10:08;100725.56;;;9.32;62.11
43281;BME280;62175;49.416;8.690;2023-12-20T06:12:35;100732.03;;;9.49;62.53
43281;BME280;62175;49.416;8.690;2023-12-20T06:15:02;100740.11;;;9.23;62.25
43281;BME280;62175;49.416;8.690;2023-12-20T06:17:29;100739.79;;;9.23;62.45
43281;BME280;62175;49.416;8.690;2023-12-20T06:19:57;100739.78;;;9.47;62.80
43281;BME280;62175;49.416;8.690;2023-12-20T06:22:24;100744.20;;;9.22;62.62
43281;BME280;62175;49.416;8.690;2023-12-20T06:24:51;100750.31;;;9.33;63.15
43281;BME280;62175;49.416;8.690;2023-12-20T06:27:19;100750.33;;;9.35;63.32
43281;BME280;62175;49.416;8.690;2023-12-20T06:29:46;100751.95;;;9.36;62.92
43281;BME280;62175;49.416;8.690;2023-12-20T06:32:13;100752.42;;;9.27;63.05
43281;BME280;62175;49.416;8.690;2023-12-20T06:34:41;100753.27;;;9.29;63.41
43281;BME280;62175;49.416;8.690;2023-12-20T06:37:08;100751.17;;;9.02;63.22
43281;BME280;62175;49.416;8.690;2023-12-20T06:39:35;100760.08;;;8.99;63.20
43281;BME280;62175;49.416;8.690;2023-12-20T06:42:03;100764.27;;;9.20;63.33
43281;BME280;62175;49.416;8.690;2023-12-20T06:44:30;100763.34;;;9.23;63.53
43281;BME280;62175;49.416;8.690;2023-12-20T06:46:58;100763.53;;;9.24;63.30
43281;BME280;62175;49.416;8.690;2023-12-20T06:49:25;100768.92;;;9.28;63.22
43281;BME280;62175;49.416;8.690;2023-12-20T06:51:52;100771.42;;;8.92;61.86
43281;BME280;62175;49.416;8.690;2023-12-20T06:54:20;100773.28;;;9.54;63.61
43281;BME280;62175;49.416;8.690;2023-12-20T06:56:47;100766.87;;;9.55;63.15
43281;BME280;62175;49.416;8.690;2023-12-20T06:59:15;100763.52;;;9.43;61.97
43281;BME280;62175;49.416;8.690;2023-12-20T07:01:42;100762.60;;;9.38;62.49
43281;BME280;62175;49.416;8.690;2023-12-20T07:04:09;100764.15;;;9.42;62.39
43281;BME280;62175;49.416;8.690;2023-12-20T07:06:36;100763.11;;;9.30;61.92
43281;BME280;62175;49.416;8.690;2023-12-20T07:09:04;100760.77;;;9.50;62.42
43281;BME280;62175;49.416;8.690;2023-12-20T07:11:31;100758.53;;;9.27;61.85
43281;BME280;62175;49.416;8.690;2023-12-20T07:13:58;100752.31;;;9.44;62.57
43281;BME280;62175;49.416;8.690;2023-12-20T07:16:26;100759.78;;;9.33;62.09
43281;BME280;62175;49.416;8.690;2023-12-20T07:18:53;100759.22;;;9.63;61.76
43281;BME280;62175;49.416;8.690;2023-12-20T07:21:20;100766.14;;;9.39;62.50
43281;BME280;62175;49.416;8.690;2023-12-20T07:23:48;100763.27;;;9.44;61.16
43281;BME280;62175;49.416;8.690;2023-12-20T07:26:15;100762.33;;;9.19;61.51
43281;BME280;62175;49.416;8.690;2023-12-20T07:28:43;100767.63;;;9.43;61.45
43281;BME280;62175;49.416;8.690;2023-12-20T07:31:10;100767.69;;;9.24;60.95
43281;BME280;62175;49.416;8.690;2023-12-20T07:33:37;100767.12;;;9.18;61.62
43281;BME280;62175;49.416;8.690;2023-12-20T07:36:05;100768.61;;;9.45;61.56
43281;BME280;62175;49.416;8.690;2023-12-20T07:38:32;100768.41;;;9.73;61.60
43281;BME280;62175;49.416;8.690;2023-12-20T07:40:59;100771.45;;;9.34;62.05
43281;BME280;62175;49.416;8.690;2023-12-20T07:43:26;100770.12;;;9.37;61.13
43281;BME280;62175;49.416;8.690;2023-12-20T07:45:54;100775.91;;;9.27;60.81
43281;BME280;62175;49.416;8.690;2023-12-20T07:48:21;100776.93;;;9.36;61.67
43281;BME280;62175;49.416;8.690;2023-12-20T07:50:48;100789.23;;;9.63;60.67
43281;BME280;62175;49.416;8.690;2023-12-20T07:53:16;100797.97;;;9.10;61.60
43281;BME280;62175;49.416;8.690;2023-12-20T07:55:43;100801.34;;;9.34;60.90
43281;BME280;62175;49.416;8.690;2023-12-20T07:58:10;100803.65;;;9.29;61.09
43281;BME280;62175;49.416;8.690;2023-12-20T08:00:37;100808.41;;;9.41;60.67
43281;BME280;62175;49.416;8.690;2023-12-20T08:03:05;100803.90;;;9.46;60.97
43281;BME280;62175;49.416;8.690;2023-12-20T08:05:31;100806.72;;;9.42;60.11
43281;BME280;62175;49.416;8.690;2023-12-20T08:07:59;100810.98;;;9.63;60.79
43281;BME280;62175;49.416;8.690;2023-12-20T08:10:26;100818.58;;;9.09;61.84
43281;BME280;62175;49.416;8.690;2023-12-20T08:12:53;100815.79;;;9.24;60.26
43281;BME280;62175;49.416;8.690;2023-12-20T08:15:21;100815.70;;;9.16;60.89
43281;BME280;62175;49.416;8.690;2023-12-20T08:17:48;100812.18;;;9.35;60.53
43281;BME280;62175;49.416;8.690;2023-12-20T08:20:15;100818.48;;;9.27;60.67
43281;BME280;62175;49.416;8.690;2023-12-20T08:22:43;100824.03;;;9.13;60.86
43281;BME280;62175;49.416;8.690;2023-12-20T08:25:11;100823.32;;;9.12;60.94
43281;BME280;62175;49.416;8.690;2023-12-20T08:27:40;100826.67;;;9.22;61.55
43281;BME280;62175;49.416;8.690;2023-12-20T08:30:08;100827.63;;;9.33;60.81
43281;BME280;62175;49.416;8.690;2023-12-20T08:32:36;100826.85;;;9.14;61.69
43281;BME280;62175;49.416;8.690;2023-12-20T08:35:04;100823.42;;;9.28;61.65
43281;BME280;62175;49.416;8.690;2023-12-20T08:37:31;100821.50;;;9.37;60.67
43281;BME280;62175;49.416;8.690;2023-12-20T08:39:58;100825.79;;;9.33;60.70
43281;BME280;62175;49.416;8.690;2023-12-20T08:42:26;100827.00;;;9.15;61.47
43281;BME280;62175;49.416;8.690;2023-12-20T08:44:53;100827.45;;;9.30;61.85
43281;BME280;62175;49.416;8.690;2023-12-20T08:47:20;100830.05;;;9.35;61.90
43281;BME280;62175;49.416;8.690;2023-12-20T08:49:47;100830.22;;;9.61;61.31
43281;BME280;62175;49.416;8.690;2023-12-20T08:52:14;100833.98;;;9.36;61.66
43281;BME280;62175;49.416;8.690;2023-12-20T08:54:41;100834.32;;;9.28;60.48
43281;BME280;62175;49.416;8.690;2023-12-20T08:57:08;100839.53;;;9.37;60.62
43281;BME280;62175;49.416;8.690;2023-12-20T08:59:35;100838.34;;;9.69;60.59
43281;BME280;62175;49.416;8.690;2023-12-20T09:02:03;100839.54;;;9.47;61.42
43281;BME280;62175;49.416;8.690;2023-12-20T09:04:30;100838.16;;;9.40;61.08
43281;BME280;62175;49.416;8.690;2023-12-20T09:07:00;100843.06;;;9.43;61.12
43281;BME280;62175;49.416;8.690;2023-12-20T09:09:27;100842.91;;;9.34;60.09
43281;BME280;62175;49.416;8.690;2023-12-20T09:11:53;100840.98;;;9.33;60.85
43281;BME280;62175;49.416;8.690;2023-12-20T09:14:21;100842.62;;;9.39;60.59
43281;BME280;62175;49.416;8.690;2023-12-20T09:16:48;100849.28;;;9.40;60.04
43281;BME280;62175;49.416;8.690;2023-12-20T09:19:15;100853.77;;;9.68;60.81
43281;BME280;62175;49.416;8.690;2023-12-20T09:21:42;100852.79;;;9.44;60.21
43281;BME280;62175;49.416;8.690;2023-12-20T09:24:10;100854.13;;;9.32;58.98
43281;BME280;62175;49.416;8.690;2023-12-20T09:26:37;100855.24;;;9.36;60.23
43281;BME280;62175;49.416;8.690;2023-12-20T09:29:04;100855.55;;;9.61;60.13
43281;BME280;62175;49.416;8.690;2023-12-20T09:31:32;100862.64;;;9.06;59.40
43281;BME280;62175;49.416;8.690;2023-12-20T09:33:59;100862.84;;;9.34;59.41
43281;BME280;62175;49.416;8.690;2023-12-20T09:36:26;100866.42;;;9.63;59.41
43281;BME280;62175;49.416;8.690;2023-12-20T09:38:53;100865.14;;;9.26;59.45
43281;BME280;62175;49.416;8.690;2023-12-20T09:41:21;100864.71;;;9.73;59.80
43281;BME280;62175;49.416;8.690;2023-12-20T09:43:51;100863.30;;;9.71;59.25
43281;BME280;62175;49.416;8.690;2023-12-20T09:46:24;100863.23;;;9.20;60.21
43281;BME280;62175;49.416;8.690;2023-12-20T09:48:54;100864.95;;;9.46;59.47
43281;BME280;62175;49.416;8.690;2023-12-20T09:51:21;100871.49;;;9.44;60.44
43281;BME280;62175;49.416;8.690;2023-12-20T09:53:48;100875.21;;;9.33;60.02
43281;BME280;62175;49.416;8.690;2023-12-20T09:56:17;100866.94;;;9.61;59.61
43281;BME280;62175;49.416;8.690;2023-12-20T09:58:44;100866.60;;;9.25;59.53
43281;BME280;62175;49.416;8.690;2023-12-20T10:01:11;100864.09;;;9.55;59.44
43281;BME280;62175;49.416;8.690;2023-12-20T10:03:39;100861.35;;;9.18;59.47
43281;BME280;62175;49.416;8.690;2023-12-20T10:06:08;100859.63;;;9.22;59.19
43281;BME280;62175;49.416;8.690;2023-12-20T10:08:35;100861.32;;;9.57;59.56
43281;BME280;62175;49.416;8.690;2023-12-20T10:11:02;100858.71;;;9.08;58.88
43281;BME280;62175;49.416;8.690;2023-12-20T10:13:29;100853.93;;;9.53;59.09
43281;BME280;62175;49.416;8.690;2023-12-20T10:15:57;100857.13;;;9.59;58.94
43281;BME280;62175;49.416;8.690;2023-12-20T10:18:24;100861.31;;;9.40;60.55
43281;BME280;62175;49.416;8.690;2023-12-20T10:20:52;100872.34;;;9.50;58.23
43281;BME280;62175;49.416;8.690;2023-12-20T10:23:20;100868.21;;;9.36;58.92
43281;BME280;62175;49.416;8.690;2023-12-20T10:25:56;100860.54;;;9.24;58.12
43281;BME280;62175;49.416;8.690;2023-12-20T10:28:24;100841.61;;;9.17;57.17
43281;BME280;62175;49.416;8.690;2023-12-20T10:30:51;100843.67;;;9.28;56.58
43281;BME280;62175;49.416;8.690;2023-12-20T10:33:24;100841.79;;;9.16;56.44
43281;BME280;62175;49.416;8.690;2023-12-20T10:35:52;100834.57;;;9.38;56.96
43281;BME280;62175;49.416;8.690;2023-12-20T10:38:19;100837.81;;;9.33;57.01
43281;BME280;62175;49.416;8.690;2023-12-20T10:40:47;100834.90;;;9.27;57.28
43281;BME280;62175;49.416;8.690;2023-12-20T10:43:15;100833.13;;;9.44;57.72
43281;BME280;62175;49.416;8.690;2023-12-20T10:45:43;100831.90;;;9.82;57.30
43281;BME280;62175;49.416;8.690;2023-12-20T10:48:11;100827.18;;;9.69;58.12
43281;BME280;62175;49.416;8.690;2023-12-20T10:50:38;100822.59;;;9.46;57.58
43281;BME280;62175;49.416;8.690;2023-12-20T10:53:06;100825.27;;;9.41;57.14
43281;BME280;62175;49.416;8.690;2023-12-20T10:55:33;100826.89;;;9.48;56.55
43281;BME280;62175;49.416;8.690;2023-12-20T10:58:01;100826.89;;;9.30;56.30
43281;BME280;62175;49.416;8.690;2023-12-20T11:00:29;100829.77;;;9.49;56.79
43281;BME280;62175;49.416;8.690;2023-12-20T11:03:00;100830.92;;;9.39;57.53
43281;BME280;62175;49.416;8.690;2023-12-20T11:05:32;100829.21;;;9.13;56.71
43281;BME280;62175;49.416;8.690;2023-12-20T11:08:03;100829.70;;;9.47;56.23
43281;BME280;62175;49.416;8.690;2023-12-20T11:10:41;100823.88;;;9.27;56.09
43281;BME280;62175;49.416;8.690;2023-12-20T11:13:17;100821.98;;;9.56;55.97
43281;BME280;62175;49.416;8.690;2023-12-20T11:15:47;100817.44;;;9.62;56.22
43281;BME280;62175;49.416;8.690;2023-12-20T11:18:15;100810.40;;;8.97;54.96
43281;BME280;62175;49.416;8.690;2023-12-20T11:20:42;100808.10;;;9.58;55.60
43281;BME280;62175;49.416;8.690;2023-12-20T11:23:09;100805.90;;;9.12;55.99
43281;BME280;62175;49.416;8.690;2023-12-20T11:25:47;100805.21;;;9.28;56.81
43281;BME280;62175;49.416;8.690;2023-12-20T11:28:14;100806.27;;;9.13;55.46
43281;BME280;62175;49.416;8.690;2023-12-20T11:30:42;100798.53;;;9.57;55.94
43281;BME280;62175;49.416;8.690;2023-12-20T11:33:13;100798.39;;;9.34;56.23
43281;BME280;62175;49.416;8.690;2023-12-20T11:35:41;100797.07;;;9.37;56.90
43281;BME280;62175;49.416;8.690;2023-12-20T11:38:09;100794.54;;;9.53;56.55
43281;BME280;62175;49.416;8.690;2023-12-20T11:40:36;100799.33;;;9.27;56.72
43281;BME280;62175;49.416;8.690;2023-12-20T11:43:04;100792.89;;;9.53;56.64
43281;BME280;62175;49.416;8.690;2023-12-20T11:45:31;100788.67;;;9.61;56.85
43281;BME280;62175;49.416;8.690;2023-12-20T11:47:58;100794.86;;;9.71;57.50
43281;BME280;62175;49.416;8.690;2023-12-20T11:50:26;100793.42;;;9.48;57.08
43281;BME280;62175;49.416;8.690;2023-12-20T11:52:53;100794.43;;;9.67;55.19
43281;BME280;62175;49.416;8.690;2023-12-20T11:55:20;100792.89;;;9.50;56.61
43281;BME280;62175;49.416;8.690;2023-12-20T11:57:47;100796.87;;;9.52;56.20
43281;BME280;62175;49.416;8.690;2023-12-20T12:00:15;100801.84;;;9.52;56.91
43281;BME280;62175;49.416;8.690;2023-12-20T12:02:43;100791.32;;;9.30;55.58
43281;BME280;62175;49.416;8.690;2023-12-20T12:05:10;100784.60;;;9.47;56.28
43281;BME280;62175;49.416;8.690;2023-12-20T12:07:37;100780.15;;;9.54;57.08
43281;BME280;62175;49.416;8.690;2023-12-20T12:10:06;100784.06;;;9.38;57.08
43281;BME280;62175;49.416;8.690;2023-12-20T12:12:33;100790.04;;;9.59;55.64
43281;BME280;62175;49.416;8.690;2023-12-20T12:15:00;100790.48;;;9.33;57.02
43281;BME280;62175;49.416;8.690;2023-12-20T12:17:27;100791.32;;;9.59;55.88
43281;BME280;62175;49.416;8.690;2023-12-20T12:20:02;100790.43;;;9.59;55.73
43281;BME280;62175;49.416;8.690;2023-12-20T12:22:30;100794.71;;;9.48;56.40
43281;BME280;62175;49.416;8.690;2023-12-20T12:25:05;100797.44;;;9.41;56.83
43281;BME280;62175;49.416;8.690;2023-12-20T12:27:35;100795.33;;;9.41;56.89
43281;BME280;62175;49.416;8.690;2023-12-20T12:30:04;100792.09;;;9.45;56.00
43281;BME280;62175;49.416;8.690;2023-12-20T12:32:32;100783.30;;;9.16;55.62
43281;BME280;62175;49.416;8.690;2023-12-20T12:34:59;100782.87;;;9.37;55.51
43281;BME280;62175;49.416;8.690;2023-12-20T12:37:26;100781.66;;;9.32;56.62
43281;BME280;62175;49.416;8.690;2023-12-20T12:39:53;100784.27;;;9.40;56.34
43281;BME280;62175;49.416;8.690;2023-12-20T12:42:21;100787.18;;;9.49;56.70
43281;BME280;62175;49.416;8.690;2023-12-20T12:44:48;100788.40;;;9.43;56.02
43281;BME280;62175;49.416;8.690;2023-12-20T12:47:15;100786.97;;;9.56;56.62
43281;BME280;62175;49.416;8.690;2023-12-20T12:49:42;100791.11;;;9.65;57.16
43281;BME280;62175;49.416;8.690;2023-12-20T12:52:09;100792.65;;;9.37;56.05
43281;BME280;62175;49.416;8.690;2023-12-20T12:54:37;100795.08;;;9.21;55.52
43281;BME280;62175;49.416;8.690;2023-12-20T12:57:04;100795.33;;;9.99;55.91
43281;BME280;62175;49.416;8.690;2023-12-20T12:59:31;100796.22;;;9.16;55.92
43281;BME280;62175;49.416;8.690;2023-12-20T13:01:58;100793.15;;;8.86;54.96